createdAt,value
2023-03-22T00:01:16.900Z,47.80
2023-03-22T00:03:44.539Z,49.25
2023-03-22T00:06:12.284Z,44.65
2023-03-22T00:08:39.470Z,46.97
2023-03-22T00:11:07.501Z,42.25
2023-03-22T00:13:36.506Z,42.78
2023-03-22T00:16:05.550Z,44.55
2023-03-22T00:18:32.465Z,44.60
2023-03-22T00:21:00.100Z,49.47
2023-03-22T00:23:27.382Z,42.47
2023-03-22T00:25:54.651Z,49.00
2023-03-22T00:28:21.909Z,44.53
2023-03-22T00:30:58.082Z,40.80
2023-03-22T00:33:25.597Z,43.53
2023-03-22T00:35:54.828Z,46.42
2023-03-22T00:38:32.525Z,43.28
2023-03-22T00:41:12.604Z,41.13
2023-03-22T00:43:40.100Z,46.20
2023-03-22T00:46:07.622Z,43.78
2023-03-22T00:48:35.336Z,46.35
2023-03-22T00:51:02.943Z,44.47
2023-03-22T00:53:30.219Z,44.25
2023-03-22T00:55:57.961Z,42.05
2023-03-22T00:58:25.804Z,39.22
2023-03-22T01:00:53.135Z,45.42
2023-03-22T01:03:22.050Z,49.25
2023-03-22T01:05:49.613Z,47.10
2023-03-22T01:08:16.939Z,42.50
2023-03-22T01:10:45.050Z,45.65
2023-03-22T01:13:13.029Z,44.30
2023-03-22T01:15:41.408Z,43.78
2023-03-22T01:18:09.066Z,43.97
2023-03-22T01:20:36.760Z,43.78
2023-03-22T01:23:04.199Z,42.17
2023-03-22T01:25:31.562Z,42.00
2023-03-22T01:27:59.010Z,43.08
2023-03-22T01:30:26.422Z,44.30
2023-03-22T01:32:53.685Z,46.25
2023-03-22T01:35:21.070Z,45.13
2023-03-22T01:37:48.295Z,47.15
2023-03-22T01:40:16.276Z,44.15
2023-03-22T01:42:43.595Z,43.97
2023-03-22T01:45:13.893Z,47.33
2023-03-22T01:47:42.796Z,45.22
2023-03-22T01:50:10.415Z,45.75
2023-03-22T01:52:37.820Z,47.15
2023-03-22T01:55:06.305Z,49.50
2023-03-22T01:57:37.633Z,43.92
2023-03-22T02:00:09.358Z,45.88
2023-03-22T02:02:36.952Z,43.95
2023-03-22T02:05:05.602Z,48.85
2023-03-22T02:07:32.676Z,47.60
2023-03-22T02:09:59.910Z,47.25
2023-03-22T02:12:30.008Z,52.28
2023-03-22T02:15:12.178Z,50.13
2023-03-22T02:17:46.735Z,46.33
2023-03-22T02:20:38.359Z,50.80
2023-03-22T02:23:30.404Z,51.50
2023-03-22T02:26:06.814Z,55.22
2023-03-22T02:29:03.556Z,53.72
2023-03-22T02:31:31.109Z,52.88
2023-03-22T02:34:23.770Z,44.97
2023-03-22T02:36:50.671Z,45.75
2023-03-22T02:39:33.512Z,47.83
2023-03-22T02:42:09.355Z,52.30
2023-03-22T02:45:01.204Z,111.97
2023-03-22T02:47:38.641Z,137.10
2023-03-22T02:50:15.141Z,130.55
2023-03-22T02:52:54.887Z,175.38
2023-03-22T02:55:35.505Z,151.07
2023-03-22T02:58:19.507Z,98.43
2023-03-22T03:00:51.167Z,83.28
2023-03-22T03:03:19.713Z,84.22
2023-03-22T03:05:49.425Z,131.05
2023-03-22T03:08:18.081Z,107.43
2023-03-22T03:10:46.323Z,78.93
2023-03-22T03:13:15.213Z,99.95
2023-03-22T03:15:46.549Z,82.50
2023-03-22T03:18:19.311Z,76.45
2023-03-22T03:21:11.244Z,111.32
2023-03-22T03:23:38.445Z,120.18
2023-03-22T03:26:13.655Z,85.30
2023-03-22T03:29:05.737Z,71.45
2023-03-22T03:31:40.598Z,46.88
2023-03-22T03:34:21.969Z,88.68
2023-03-22T03:36:55.325Z,60.63
2023-03-22T03:39:27.397Z,49.22
2023-03-22T03:41:56.266Z,121.43
2023-03-22T03:44:24.121Z,111.35
2023-03-22T03:46:52.852Z,84.57
2023-03-22T03:49:21.448Z,110.00
2023-03-22T03:51:53.967Z,87.78
2023-03-22T03:54:22.133Z,78.07
2023-03-22T03:56:49.702Z,124.90
2023-03-22T03:59:17.235Z,79.60
2023-03-22T04:01:50.223Z,169.05
2023-03-22T04:04:26.924Z,120.75
2023-03-22T04:06:58.104Z,118.22
2023-03-22T04:09:27.448Z,135.73
2023-03-22T04:11:55.954Z,113.30
2023-03-22T04:14:24.021Z,69.88
2023-03-22T04:16:51.603Z,60.60
2023-03-22T04:19:19.137Z,88.28
2023-03-22T04:21:47.106Z,101.75
2023-03-22T04:24:14.489Z,42.10
2023-03-22T04:26:41.695Z,79.88
2023-03-22T04:29:09.762Z,71.25
2023-03-22T04:31:37.657Z,81.68
2023-03-22T04:34:05.691Z,68.43
2023-03-22T04:36:36.534Z,69.47
2023-03-22T04:39:06.045Z,57.03
2023-03-22T04:41:33.753Z,107.78
2023-03-22T04:44:03.838Z,58.08
2023-03-22T04:46:31.644Z,46.75
2023-03-22T04:48:58.923Z,51.63
2023-03-22T04:51:26.327Z,36.90
2023-03-22T04:53:54.730Z,48.17
2023-03-22T04:56:21.924Z,43.78
2023-03-22T04:58:49.196Z,55.13
2023-03-22T05:01:17.116Z,48.92
2023-03-22T05:03:48.397Z,50.83
2023-03-22T05:06:15.951Z,71.80
2023-03-22T05:08:43.299Z,74.53
2023-03-22T05:11:13.166Z,73.43
2023-03-22T05:13:40.794Z,88.40
2023-03-22T05:16:08.956Z,110.70
2023-03-22T05:18:38.082Z,86.68
2023-03-22T05:21:07.029Z,46.40
2023-03-22T05:23:34.318Z,133.88
2023-03-22T05:26:02.073Z,115.07
2023-03-22T05:28:29.731Z,114.65
2023-03-22T05:30:57.465Z,85.50
2023-03-22T05:33:24.725Z,79.63
2023-03-22T05:35:52.738Z,102.20
2023-03-22T05:38:19.588Z,89.45
2023-03-22T05:40:46.824Z,122.43
2023-03-22T05:43:14.158Z,89.40
2023-03-22T05:45:41.279Z,86.05
2023-03-22T05:48:08.652Z,104.60
2023-03-22T05:50:36.168Z,75.15
2023-03-22T05:53:04.072Z,58.63
2023-03-22T05:55:32.147Z,80.13
2023-03-22T05:57:59.967Z,81.38
2023-03-22T06:00:27.208Z,81.82
2023-03-22T06:02:56.580Z,71.45
2023-03-22T06:05:24.240Z,53.47
2023-03-22T06:07:51.512Z,59.03
2023-03-22T06:10:18.449Z,57.65
2023-03-22T06:12:45.723Z,65.82
2023-03-22T06:15:13.012Z,59.17
2023-03-22T06:17:40.628Z,60.72
2023-03-22T06:20:11.859Z,45.63
2023-03-22T06:22:39.293Z,93.00
2023-03-22T06:25:08.050Z,48.83
2023-03-22T06:27:35.577Z,51.70
2023-03-22T06:30:02.595Z,62.53
2023-03-22T06:32:29.832Z,79.10
2023-03-22T06:34:57.276Z,60.58
2023-03-22T06:37:24.630Z,35.15
2023-03-22T06:39:52.278Z,57.42
2023-03-22T06:42:20.106Z,65.45
2023-03-22T06:44:47.471Z,60.30
2023-03-22T06:47:14.675Z,48.55
2023-03-22T06:49:42.367Z,47.45
2023-03-22T06:52:09.616Z,66.10
2023-03-22T06:54:36.554Z,38.03
2023-03-22T06:57:03.852Z,73.20
2023-03-22T06:59:30.758Z,59.83
2023-03-22T07:01:57.664Z,50.88
2023-03-22T07:04:25.797Z,35.83
2023-03-22T07:06:52.736Z,46.17
2023-03-22T07:09:20.076Z,49.13
2023-03-22T07:11:47.188Z,32.40
2023-03-22T07:14:14.429Z,31.35
2023-03-22T07:16:41.363Z,31.48
2023-03-22T07:19:08.426Z,34.97
2023-03-22T07:21:35.689Z,31.08
2023-03-22T07:24:03.342Z,34.28
2023-03-22T07:26:30.911Z,28.63
2023-03-22T07:28:58.218Z,31.08
2023-03-22T07:31:25.635Z,28.55
2023-03-22T07:33:52.489Z,28.75
2023-03-22T07:36:23.833Z,29.05
2023-03-22T07:38:52.299Z,27.75
2023-03-22T07:41:19.721Z,31.77
2023-03-22T07:43:54.225Z,30.65
2023-03-22T07:46:23.985Z,32.28
2023-03-22T07:48:51.214Z,29.85
2023-03-22T07:51:19.296Z,27.40
2023-03-22T07:53:47.017Z,30.02
2023-03-22T07:56:14.212Z,26.55
2023-03-22T07:58:41.142Z,29.05
2023-03-22T08:01:10.039Z,27.98
2023-03-22T08:03:37.833Z,34.85
2023-03-22T08:06:07.704Z,26.98
2023-03-22T08:08:37.002Z,36.53
2023-03-22T08:11:07.979Z,28.17
2023-03-22T08:13:35.751Z,26.40
2023-03-22T08:16:02.654Z,27.55
2023-03-22T08:18:29.890Z,26.90
2023-03-22T08:20:58.239Z,26.00
2023-03-22T08:23:38.814Z,27.33
2023-03-22T08:26:08.074Z,28.13
2023-03-22T08:28:34.927Z,22.95
2023-03-22T08:31:01.742Z,25.75
2023-03-22T08:33:28.753Z,27.80
2023-03-22T08:36:09.533Z,26.65
2023-03-22T08:38:36.696Z,42.70
2023-03-22T08:41:03.684Z,119.72
2023-03-22T08:43:30.946Z,29.15
2023-03-22T08:45:58.472Z,27.90
2023-03-22T08:48:29.102Z,31.17
2023-03-22T08:50:56.371Z,26.55
2023-03-22T08:53:23.889Z,28.55
2023-03-22T08:55:51.288Z,31.35
2023-03-22T08:58:20.447Z,26.23
2023-03-22T09:00:49.281Z,28.45
2023-03-22T09:03:17.095Z,27.35
2023-03-22T09:05:44.524Z,41.90
2023-03-22T09:08:18.623Z,27.70
2023-03-22T09:10:51.435Z,27.90
2023-03-22T09:13:19.042Z,22.05
2023-03-22T09:15:46.095Z,24.85
2023-03-22T09:18:13.970Z,25.52
2023-03-22T09:20:41.218Z,24.92
2023-03-22T09:23:08.335Z,28.63
2023-03-22T09:25:35.430Z,28.88
2023-03-22T09:28:02.712Z,24.88
2023-03-22T09:30:29.963Z,27.60
2023-03-22T09:32:57.369Z,21.08
2023-03-22T09:35:24.649Z,28.08
2023-03-22T09:37:54.420Z,24.73
2023-03-22T09:40:22.600Z,24.13
2023-03-22T09:42:52.124Z,23.30
2023-03-22T09:45:23.034Z,24.13
2023-03-22T09:47:53.068Z,22.73
2023-03-22T09:50:22.697Z,18.70
2023-03-22T09:52:51.028Z,20.92
2023-03-22T09:55:42.984Z,19.13
2023-03-22T09:58:37.717Z,19.77
2023-03-22T10:01:43.889Z,24.70
2023-03-22T10:04:40.936Z,21.05
2023-03-22T10:07:10.644Z,25.90
2023-03-22T10:10:10.021Z,25.85
2023-03-22T10:12:51.584Z,26.65
2023-03-22T10:15:26.753Z,22.80
2023-03-22T10:17:56.517Z,24.05
2023-03-22T10:21:00.680Z,21.13
2023-03-22T10:23:35.409Z,22.13
2023-03-22T10:26:03.987Z,19.98
2023-03-22T10:28:44.066Z,20.75
2023-03-22T10:31:17.638Z,36.35
2023-03-22T10:34:02.732Z,25.58
2023-03-22T10:36:34.933Z,26.05
2023-03-22T10:39:25.512Z,29.13
2023-03-22T10:41:57.839Z,25.10
2023-03-22T10:44:28.664Z,22.90
2023-03-22T10:46:59.991Z,24.02
2023-03-22T10:49:37.276Z,20.98
2023-03-22T10:52:22.517Z,115.38
2023-03-22T10:54:49.754Z,21.55
2023-03-22T10:57:17.487Z,19.88
2023-03-22T10:59:53.797Z,19.30
2023-03-22T11:02:21.570Z,19.65
2023-03-22T11:04:54.044Z,19.73
2023-03-22T11:07:44.241Z,19.37
2023-03-22T11:10:32.709Z,17.70
2023-03-22T11:13:26.184Z,19.67
2023-03-22T11:15:58.205Z,19.10
2023-03-22T11:18:29.212Z,20.35
2023-03-22T11:20:59.717Z,15.52
2023-03-22T11:23:28.627Z,17.10
2023-03-22T11:25:59.245Z,17.45
2023-03-22T11:28:37.351Z,18.95
2023-03-22T11:31:08.485Z,19.25
2023-03-22T11:33:37.251Z,18.52
2023-03-22T11:36:16.426Z,17.45
2023-03-22T11:38:45.577Z,16.08
2023-03-22T11:41:24.490Z,20.90
2023-03-22T11:43:56.075Z,18.10
2023-03-22T11:46:23.537Z,16.48
2023-03-22T11:49:00.945Z,17.13
2023-03-22T11:51:35.166Z,17.90
2023-03-22T11:54:16.809Z,17.40
2023-03-22T11:56:48.091Z,82.55
2023-03-22T11:59:27.444Z,13.88
2023-03-22T12:02:18.670Z,16.73
2023-03-22T12:04:49.995Z,16.58
2023-03-22T12:07:21.593Z,16.73
2023-03-22T12:10:08.050Z,22.50
2023-03-22T12:12:44.434Z,19.00
2023-03-22T12:15:24.287Z,17.30
2023-03-22T12:18:07.873Z,16.17
2023-03-22T12:21:04.668Z,23.48
2023-03-22T12:23:37.445Z,18.80
2023-03-22T12:26:09.888Z,17.17
2023-03-22T12:28:40.711Z,15.65
2023-03-22T12:31:14.525Z,20.02
2023-03-22T12:33:51.544Z,17.88
2023-03-22T12:36:26.600Z,18.90
2023-03-22T12:38:56.779Z,18.48
2023-03-22T12:41:37.599Z,17.52
2023-03-22T12:44:27.041Z,18.40
2023-03-22T12:46:58.245Z,19.05
2023-03-22T12:49:41.772Z,15.95
2023-03-22T12:54:42.976Z,19.52
2023-03-22T12:57:10.872Z,16.98
2023-03-22T12:59:38.390Z,20.17
2023-03-22T13:02:05.849Z,19.23
2023-03-22T13:04:52.657Z,18.58
2023-03-22T13:07:30.532Z,19.83
2023-03-22T13:09:59.424Z,19.02
2023-03-22T13:12:32.447Z,14.88
2023-03-22T13:15:40.424Z,19.08
2023-03-22T13:18:43.957Z,19.75
2023-03-22T13:21:14.264Z,16.48
2023-03-22T13:24:01.214Z,12.18
2023-03-22T13:26:37.617Z,17.90
2023-03-22T13:29:17.541Z,19.00
2023-03-22T13:31:51.740Z,14.70
2023-03-22T13:34:21.503Z,15.63
2023-03-22T13:36:57.733Z,105.57
2023-03-22T13:39:27.445Z,16.55
2023-03-22T13:42:22.202Z,15.98
2023-03-22T13:45:04.058Z,16.10
2023-03-22T13:47:37.650Z,15.50
2023-03-22T13:50:16.108Z,13.80
2023-03-22T13:52:52.988Z,15.60
2023-03-22T13:55:51.828Z,15.30
2023-03-22T13:58:36.437Z,12.60
2023-03-22T14:01:06.336Z,16.15
2023-03-22T14:03:40.868Z,13.35
2023-03-22T14:06:28.819Z,13.27
2023-03-22T14:09:11.357Z,15.75
2023-03-22T14:11:59.799Z,17.13
2023-03-22T14:14:32.238Z,14.65
2023-03-22T14:17:05.395Z,14.60
